Time,TemperatureF,DewpointF,PressureIn,WindDirection,WindDirectionDegrees,WindSpeedMPH,WindSpeedGustMPH,Humidity,HourlyPrecipIn,Conditions,Clouds,dailyrainin,SoftwareType,DateUTC
2013-02-18 00:01:00,37.0,27.0,28.09,WNW,297,4.0,8.0,68,0.00,,,0.00,,2013-02-18 08:01:00,
2013-02-18 00:11:00,37.0,27.0,28.09,WNW,297,4.0,8.0,68,0.00,,,0.00,,2013-02-18 08:11:00,
2013-02-18 00:21:00,38.0,28.0,28.09,WNW,293,5.0,10.0,66,0.00,,,0.00,,2013-02-18 08:21:00,
2013-02-18 00:32:00,38.0,27.0,28.09,WNW,295,5.0,14.0,65,0.00,,,0.00,,2013-02-18 08:32:00,
2013-02-18 00:41:00,38.0,27.0,28.09,WNW,295,5.0,14.0,65,0.00,,,0.00,,2013-02-18 08:41:00,
2013-02-18 00:52:00,38.0,27.0,28.09,WNW,287,5.0,11.0,65,0.00,,,0.00,,2013-02-18 08:52:00,
2013-02-18 01:02:00,36.0,26.0,28.09,NNE,15,1.0,2.0,68,0.00,,,0.00,,2013-02-18 09:02:00,
2013-02-18 01:11:00,36.0,26.0,28.09,NNE,15,1.0,2.0,68,0.00,,,0.00,,2013-02-18 09:11:00,
2013-02-18 01:22:00,36.0,27.0,28.08,NW,318,0.0,1.0,69,0.00,,,0.00,,2013-02-18 09:22:00,
2013-02-18 01:31:00,33.0,26.0,28.08,WSW,238,0.0,2.0,74,0.00,,,0.00,,2013-02-18 09:31:00,
2013-02-18 01:41:00,33.0,26.0,28.08,WSW,238,0.0,2.0,74,0.00,,,0.00,,2013-02-18 09:41:00,
2013-02-18 01:51:00,34.0,27.0,28.08,West,268,1.0,4.0,74,0.00,,,0.00,,2013-02-18 09:51:00,
2013-02-18 02:01:00,35.0,27.0,28.08,WSW,246,1.0,4.0,72,0.00,,,0.00,,2013-02-18 10:01:00,
2013-02-18 02:11:00,35.0,27.0,28.08,WSW,246,1.0,4.0,72,0.00,,,0.00,,2013-02-18 10:11:00,
2013-02-18 02:21:00,35.0,27.0,28.08,NNW,341,5.0,8.0,71,0.00,,,0.00,,2013-02-18 10:21:00,
2013-02-18 02:31:00,34.0,26.0,28.07,NW,309,2.0,7.0,71,0.00,,,0.00,,2013-02-18 10:31:00,
2013-02-18 02:41:00,34.0,26.0,28.07,NW,309,2.0,7.0,71,0.00,,,0.00,,2013-02-18 10:41:00,
2013-02-18 02:52:00,33.0,26.0,28.07,NW,309,0.0,1.0,74,0.00,,,0.00,,2013-02-18 10:52:00,
2013-02-18 03:01:00,33.0,27.0,28.07,WNW,300,2.0,4.0,77,0.00,,,0.00,,2013-02-18 11:01:00,
2013-02-18 03:11:00,33.0,27.0,28.07,WNW,300,2.0,4.0,77,0.00,,,0.00,,2013-02-18 11:11:00,
2013-02-18 03:21:00,33.0,26.0,28.07,WNW,303,0.0,3.0,76,0.00,,,0.00,,2013-02-18 11:21:00,
2013-02-18 03:31:00,32.0,26.0,28.07,SW,231,1.0,4.0,78,0.00,,,0.00,,2013-02-18 11:31:00,
2013-02-18 03:42:00,32.0,26.0,28.07,SW,231,1.0,4.0,78,0.00,,,0.00,,2013-02-18 11:42:00,
2013-02-18 03:53:00,32.0,26.0,28.06,NNE,27,0.0,3.0,77,0.00,,,0.00,,2013-02-18 11:53:00,
2013-02-18 04:01:00,31.0,25.0,28.06,NNE,27,0.0,0.0,79,0.00,,,0.00,,2013-02-18 12:01:00,
2013-02-18 04:11:00,31.0,25.0,28.06,NNE,27,0.0,0.0,79,0.00,,,0.00,,2013-02-18 12:11:00,
2013-02-18 04:21:00,31.0,26.0,28.05,WNW,290,1.0,3.0,80,0.00,,,0.00,,2013-02-18 12:21:00,
2013-02-18 04:31:00,33.0,27.0,28.05,NW,304,3.0,7.0,77,0.00,,,0.00,,2013-02-18 12:31:00,
2013-02-18 04:42:00,33.0,27.0,28.05,NW,304,3.0,7.0,77,0.00,,,0.00,,2013-02-18 12:42:00,
2013-02-18 04:53:00,33.0,26.0,28.05,NW,314,1.0,4.0,76,0.00,,,0.00,,2013-02-18 12:53:00,
2013-02-18 05:02:00,32.0,26.0,28.04,East,99,0.0,3.0,77,0.00,,,0.00,,2013-02-18 13:02:00,
2013-02-18 05:11:00,32.0,26.0,28.04,East,99,0.0,3.0,77,0.00,,,0.00,,2013-02-18 13:11:00,
2013-02-18 05:22:00,31.0,26.0,28.04,NNW,339,0.0,3.0,80,0.00,,,0.00,,2013-02-18 13:22:00,
2013-02-18 05:31:00,30.0,25.0,28.04,SW,232,0.0,2.0,81,0.00,,,0.00,,2013-02-18 13:31:00,
2013-02-18 05:41:00,30.0,25.0,28.04,SW,232,0.0,2.0,81,0.00,,,0.00,,2013-02-18 13:41:00,
2013-02-18 05:53:00,30.0,25.0,28.04,SW,234,0.0,0.0,82,0.00,,,0.00,,2013-02-18 13:53:00,
2013-02-18 06:02:00,31.0,26.0,28.04,NNE,32,0.0,1.0,82,0.00,,,0.00,,2013-02-18 14:02:00,
2013-02-18 06:21:00,30.0,25.0,28.03,NNE,30,0.0,0.0,81,0.00,,,0.00,,2013-02-18 14:21:00,
2013-02-18 06:31:00,30.0,25.0,28.03,WSW,238,0.0,1.0,83,0.00,,,0.00,,2013-02-18 14:31:00,
2013-02-18 06:41:00,30.0,25.0,28.03,WSW,238,0.0,1.0,83,0.00,,,0.00,,2013-02-18 14:41:00,
2013-02-18 06:53:00,29.0,25.0,28.02,WSW,249,0.0,1.0,84,0.00,,,0.00,,2013-02-18 14:53:00,
2013-02-18 07:01:00,29.0,25.0,28.02,ENE,68,0.0,1.0,85,0.00,,,0.00,,2013-02-18 15:01:00,
2013-02-18 07:11:00,29.0,25.0,28.02,ENE,68,0.0,1.0,85,0.00,,,0.00,,2013-02-18 15:11:00,
2013-02-18 07:21:00,30.0,26.0,28.02,NW,326,1.0,4.0,85,0.00,,,0.00,,2013-02-18 15:21:00,
2013-02-18 07:31:00,30.0,26.0,28.02,WSW,246,0.0,2.0,85,0.00,,,0.00,,2013-02-18 15:31:00,
2013-02-18 07:41:00,30.0,26.0,28.02,WSW,246,0.0,2.0,85,0.00,,,0.00,,2013-02-18 15:41:00,
2013-02-18 07:52:00,30.0,26.0,28.02,NW,311,0.0,2.0,85,0.00,,,0.00,,2013-02-18 15:52:00,
2013-02-18 08:01:00,31.0,26.0,28.01,NNW,336,1.0,4.0,82,0.00,,,0.00,,2013-02-18 16:01:00,
2013-02-18 08:11:00,31.0,26.0,28.01,NNW,336,1.0,4.0,82,0.00,,,0.00,,2013-02-18 16:11:00,
2013-02-18 08:31:00,31.0,26.0,28.01,East,97,0.0,2.0,82,0.00,,,0.00,,2013-02-18 16:31:00,
2013-02-18 08:42:00,31.0,26.0,28.01,East,97,0.0,2.0,82,0.00,,,0.00,,2013-02-18 16:42:00,
2013-02-18 08:52:00,32.0,27.0,28.01,ENE,75,0.0,1.0,82,0.00,,,0.00,,2013-02-18 16:52:00,
2013-02-18 09:02:00,32.0,27.0,28.01,ENE,75,0.0,1.0,83,0.00,,,0.00,,2013-02-18 17:02:00,
2013-02-18 09:11:00,32.0,27.0,28.01,ENE,75,0.0,1.0,83,0.00,,,0.00,,2013-02-18 17:11:00,
2013-02-18 09:21:00,33.0,28.0,28.01,West,269,0.0,1.0,81,0.00,,,0.00,,2013-02-18 17:21:00,
2013-02-18 09:31:00,33.0,28.0,28.00,WNW,286,0.0,2.0,80,0.00,,,0.00,,2013-02-18 17:31:00,
2013-02-18 09:42:00,33.0,28.0,28.00,WNW,286,0.0,2.0,80,0.00,,,0.00,,2013-02-18 17:42:00,
2013-02-18 09:52:00,34.0,28.0,28.01,NW,325,0.0,1.0,78,0.00,,,0.00,,2013-02-18 17:52:00,
2013-02-18 10:01:00,34.0,28.0,28.00,NW,325,0.0,1.0,78,0.00,,,0.00,,2013-02-18 18:01:00,
2013-02-18 10:11:00,34.0,28.0,28.00,NW,325,0.0,1.0,78,0.00,,,0.00,,2013-02-18 18:11:00,
2013-02-18 10:22:00,34.0,28.0,28.00,NW,325,1.0,3.0,79,0.00,,,0.00,,2013-02-18 18:22:00,
2013-02-18 10:31:00,35.0,29.0,27.99,NNE,30,0.0,2.0,77,0.00,,,0.00,,2013-02-18 18:31:00,
2013-02-18 10:42:00,35.0,29.0,27.99,NNE,30,0.0,2.0,77,0.00,,,0.00,,2013-02-18 18:42:00,
2013-02-18 10:52:00,36.0,29.0,27.99,NW,305,0.0,3.0,76,0.00,,,0.00,,2013-02-18 18:52:00,
2013-02-18 11:01:00,38.0,30.0,27.99,NW,305,0.0,1.0,74,0.00,,,0.00,,2013-02-18 19:01:00,
2013-02-18 11:11:00,38.0,30.0,27.99,NW,305,0.0,1.0,74,0.00,,,0.00,,2013-02-18 19:11:00,
2013-02-18 11:21:00,38.0,29.0,27.98,ENE,72,0.0,2.0,71,0.00,,,0.00,,2013-02-18 19:21:00,
2013-02-18 11:32:00,38.0,29.0,27.97,ESE,118,0.0,2.0,71,0.00,,,0.00,,2013-02-18 19:32:00,
2013-02-18 11:42:00,38.0,29.0,27.97,ESE,118,0.0,2.0,71,0.00,,,0.00,,2013-02-18 19:42:00,
2013-02-18 11:52:00,40.0,30.0,27.96,WSW,238,1.0,3.0,66,0.00,,,0.00,,2013-02-18 19:52:00,
2013-02-18 12:01:00,40.0,30.0,27.95,WSW,256,0.0,2.0,66,0.00,,,0.00,,2013-02-18 20:01:00,
2013-02-18 12:11:00,40.0,30.0,27.95,WSW,256,0.0,2.0,66,0.00,,,0.00,,2013-02-18 20:11:00,
2013-02-18 12:21:00,40.0,29.0,27.94,WNW,285,0.0,3.0,65,0.00,,,0.00,,2013-02-18 20:21:00,
2013-02-18 12:31:00,40.0,29.0,27.94,WNW,285,0.0,3.0,65,0.00,,,0.00,,2013-02-18 20:31:00,
2013-02-18 12:41:00,40.0,29.0,27.94,WNW,285,0.0,3.0,65,0.00,,,0.00,,2013-02-18 20:41:00,
2013-02-18 12:53:00,40.0,29.0,27.94,WNW,285,0.0,3.0,65,0.00,,,0.00,,2013-02-18 20:53:00,
2013-02-18 13:02:00,41.0,31.0,27.91,NNE,13,2.0,6.0,66,0.00,,,0.00,,2013-02-18 21:02:00,
2013-02-18 13:12:00,41.0,31.0,27.91,NNE,13,2.0,6.0,66,0.00,,,0.00,,2013-02-18 21:12:00,
2013-02-18 13:21:00,40.0,30.0,27.91,NNE,29,5.0,10.0,67,0.00,,,0.00,,2013-02-18 21:21:00,
2013-02-18 13:32:00,40.0,30.0,27.91,North,6,3.0,6.0,68,0.00,,,0.00,,2013-02-18 21:32:00,
2013-02-18 13:41:00,40.0,30.0,27.91,North,6,3.0,6.0,68,0.00,,,0.00,,2013-02-18 21:41:00,
2013-02-18 13:52:00,40.0,30.0,27.90,North,10,3.0,8.0,68,0.00,,,0.00,,2013-02-18 21:52:00,
2013-02-18 14:01:00,40.0,30.0,27.90,NE,39,3.0,7.0,67,0.00,,,0.00,,2013-02-18 22:01:00,
2013-02-18 14:11:00,40.0,31.0,27.90,North,358,3.0,9.0,69,0.00,,,0.00,,2013-02-18 22:11:00,
2013-02-18 14:21:00,40.0,31.0,27.90,North,358,3.0,9.0,69,0.00,,,0.00,,2013-02-18 22:21:00,
2013-02-18 14:32:00,40.0,31.0,27.90,NE,41,1.0,7.0,70,0.00,,,0.00,,2013-02-18 22:32:00,
2013-02-18 14:42:00,40.0,31.0,27.90,NE,41,1.0,7.0,70,0.00,,,0.00,,2013-02-18 22:42:00,
2013-02-18 14:53:00,41.0,31.0,27.89,ENE,65,1.0,5.0,68,0.00,,,0.00,,2013-02-18 22:53:00,
2013-02-18 15:01:00,41.0,31.0,27.89,NNE,25,3.0,8.0,68,0.00,,,0.00,,2013-02-18 23:01:00,
2013-02-18 15:11:00,41.0,31.0,27.89,NNE,25,3.0,8.0,68,0.00,,,0.00,,2013-02-18 23:11:00,
2013-02-18 15:22:00,41.0,31.0,27.89,ENE,74,3.0,7.0,68,0.00,,,0.00,,2013-02-18 23:22:00,
2013-02-18 15:31:00,41.0,31.0,27.89,ENE,77,2.0,6.0,68,0.00,,,0.00,,2013-02-18 23:31:00,
2013-02-18 15:42:00,41.0,31.0,27.89,ENE,77,2.0,6.0,68,0.00,,,0.00,,2013-02-18 23:42:00,
2013-02-18 15:53:00,40.0,30.0,27.88,East,83,2.0,7.0,67,0.00,,,0.00,,2013-02-18 23:53:00,
2013-02-18 16:01:00,40.0,31.0,27.87,ENE,74,1.0,5.0,69,0.00,,,0.00,,2013-02-19 00:01:00,
2013-02-18 16:11:00,40.0,31.0,27.87,ENE,74,1.0,5.0,69,0.00,,,0.00,,2013-02-19 00:11:00,
2013-02-18 16:22:00,41.0,32.0,27.87,NW,309,2.0,6.0,69,0.00,,,0.00,,2013-02-19 00:22:00,
2013-02-18 16:32:00,41.0,31.0,27.87,NNW,332,2.0,4.0,68,0.00,,,0.00,,2013-02-19 00:32:00,
2013-02-18 16:42:00,41.0,31.0,27.87,NNW,332,2.0,4.0,68,0.00,,,0.00,,2013-02-19 00:42:00,
2013-02-18 16:54:00,40.0,31.0,27.86,NNW,344,2.0,5.0,69,0.00,,,0.00,,2013-02-19 00:54:00,
2013-02-18 17:02:00,40.0,31.0,27.86,NNE,31,1.0,3.0,70,0.00,,,0.00,,2013-02-19 01:02:00,
2013-02-18 17:11:00,40.0,31.0,27.86,NNE,31,1.0,3.0,70,0.00,,,0.00,,2013-02-19 01:11:00,
2013-02-18 17:22:00,40.0,31.0,27.86,NW,312,1.0,3.0,70,0.00,,,0.00,,2013-02-19 01:22:00,
2013-02-18 17:32:00,39.0,30.0,27.85,NNE,16,0.0,5.0,70,0.00,,,0.00,,2013-02-19 01:32:00,
2013-02-18 17:42:00,39.0,30.0,27.85,NNE,16,0.0,5.0,70,0.00,,,0.00,,2013-02-19 01:42:00,
2013-02-18 17:54:00,39.0,30.0,27.85,NW,312,0.0,2.0,71,0.00,,,0.00,,2013-02-19 01:54:00,
2013-02-18 18:01:00,39.0,30.0,27.85,WSW,243,0.0,1.0,71,0.00,,,0.00,,2013-02-19 02:01:00,
2013-02-18 18:11:00,39.0,30.0,27.85,WSW,243,0.0,1.0,71,0.00,,,0.00,,2013-02-19 02:11:00,
2013-02-18 18:22:00,38.0,30.0,27.85,West,274,1.0,3.0,73,0.00,,,0.00,,2013-02-19 02:22:00,
2013-02-18 18:32:00,39.0,30.0,27.84,WNW,297,0.0,3.0,71,0.00,,,0.00,,2013-02-19 02:32:00,
2013-02-18 18:42:00,39.0,30.0,27.84,WNW,297,0.0,3.0,71,0.00,,,0.00,,2013-02-19 02:42:00,
2013-02-18 18:54:00,39.0,30.0,27.84,SW,233,0.0,3.0,71,0.00,,,0.00,,2013-02-19 02:54:00,
2013-02-18 19:03:00,38.0,30.0,27.84,SE,142,0.0,2.0,73,0.00,,,0.00,,2013-02-19 03:03:00,
2013-02-18 19:12:00,38.0,30.0,27.84,SE,142,0.0,2.0,73,0.00,,,0.00,,2013-02-19 03:12:00,
2013-02-18 19:22:00,37.0,29.0,27.84,SE,142,0.0,1.0,74,0.00,,,0.00,,2013-02-19 03:22:00,
2013-02-18 19:32:00,36.0,29.0,27.83,SE,142,0.0,1.0,76,0.00,,,0.00,,2013-02-19 03:32:00,
2013-02-18 19:42:00,36.0,29.0,27.83,SE,142,0.0,1.0,76,0.00,,,0.00,,2013-02-19 03:42:00,
2013-02-18 19:54:00,35.0,29.0,27.83,SE,143,0.0,1.0,78,0.00,,,0.00,,2013-02-19 03:54:00,
2013-02-18 20:01:00,35.0,29.0,27.83,SE,143,0.0,1.0,79,0.00,,,0.00,,2013-02-19 04:01:00,
2013-02-18 20:12:00,35.0,29.0,27.83,SE,143,0.0,1.0,79,0.00,,,0.00,,2013-02-19 04:12:00,
2013-02-18 20:21:00,35.0,29.0,27.83,SE,143,0.0,1.0,79,0.00,,,0.00,,2013-02-19 04:21:00,
2013-02-18 20:32:00,34.0,29.0,27.82,SE,143,0.0,0.0,81,0.00,,,0.00,,2013-02-19 04:32:00,
2013-02-18 20:42:00,34.0,29.0,27.82,SE,143,0.0,0.0,81,0.00,,,0.00,,2013-02-19 04:42:00,
2013-02-18 20:54:00,35.0,30.0,27.82,South,183,0.0,1.0,81,0.00,,,0.00,,2013-02-19 04:54:00,
2013-02-18 21:01:00,35.0,29.0,27.82,SSW,211,0.0,2.0,80,0.00,,,0.00,,2013-02-19 05:01:00,
2013-02-18 21:12:00,35.0,29.0,27.82,SSW,211,0.0,2.0,80,0.00,,,0.00,,2013-02-19 05:12:00,
2013-02-18 21:22:00,35.0,30.0,27.82,East,84,0.0,2.0,81,0.00,,,0.00,,2013-02-19 05:22:00,
2013-02-18 21:32:00,33.0,28.0,27.82,WSW,243,0.0,1.0,82,0.00,,,0.00,,2013-02-19 05:32:00,
2013-02-18 21:42:00,33.0,28.0,27.82,WSW,243,0.0,1.0,82,0.00,,,0.00,,2013-02-19 05:42:00,
2013-02-18 21:52:00,32.0,28.0,27.82,WSW,243,0.0,1.0,84,0.00,,,0.00,,2013-02-19 05:52:00,
2013-02-18 22:02:00,32.0,28.0,27.82,WSW,240,0.0,1.0,86,0.00,,,0.00,,2013-02-19 06:02:00,
2013-02-18 22:11:00,32.0,28.0,27.82,WSW,240,0.0,1.0,86,0.00,,,0.00,,2013-02-19 06:11:00,
2013-02-18 22:21:00,32.0,28.0,27.82,SSW,197,0.0,0.0,86,0.00,,,0.00,,2013-02-19 06:21:00,
2013-02-18 22:32:00,31.0,28.0,27.81,SSW,197,0.0,1.0,87,0.00,,,0.00,,2013-02-19 06:32:00,
2013-02-18 22:41:00,31.0,28.0,27.81,SSW,197,0.0,1.0,87,0.00,,,0.00,,2013-02-19 06:41:00,
2013-02-18 22:52:00,31.0,28.0,27.81,SSW,203,0.0,1.0,87,0.00,,,0.00,,2013-02-19 06:52:00,
2013-02-18 23:01:00,31.0,28.0,27.81,SSW,195,0.0,1.0,87,0.00,,,0.00,,2013-02-19 07:01:00,
2013-02-18 23:11:00,31.0,28.0,27.81,SSW,195,0.0,1.0,87,0.00,,,0.00,,2013-02-19 07:11:00,
2013-02-18 23:21:00,31.0,28.0,27.81,WSW,239,0.0,1.0,88,0.00,,,0.00,,2013-02-19 07:21:00,
2013-02-18 23:31:00,30.0,27.0,27.81,WSW,238,0.0,1.0,88,0.00,,,0.00,,2013-02-19 07:31:00,
2013-02-18 23:41:00,30.0,27.0,27.81,WSW,238,0.0,1.0,88,0.00,,,0.00,,2013-02-19 07:41:00,
2013-02-18 23:52:00,31.0,28.0,27.81,WSW,239,0.0,1.0,89,0.00,,,0.00,,2013-02-19 07:52:00,